Time;durP1;ratioP1;P1;durP2;ratioP2;P2;SDS_P1;SDS_P2;PMS_P1;PMS_P2;Temp;Humidity;BMP_temperature;BMP_pressure;BME280_temperature;BME280_humidity;BME280_pressure;Samples;Min_cycle;Max_cycle;Signal;HPM_P1;HPM_P2
2023/05/13 00:03:10;;;;;;;4.60;2.55;;;;;;;18.09;62.31;96488.25;10412948;28;20043;-30
2023/05/13 00:08:11;;;;;;;3.13;2.60;;;;;;;18.09;61.94;96492.50;10411885;28;20653;-30
2023/05/13 00:13:11;;;;;;;5.18;2.42;;;;;;;18.07;61.66;96497.56;10411910;28;20571;-30
2023/05/13 00:18:11;;;;;;;2.80;2.60;;;;;;;18.06;61.75;96489.94;10412391;28;20128;-31
2023/05/13 00:23:12;;;;;;;2.70;2.17;;;;;;;18.05;61.40;96491.66;10411619;28;20509;-30
2023/05/13 00:28:13;;;;;;;5.33;2.63;;;;;;;18.07;61.54;96489.13;10411143;28;20486;-30
2023/05/13 00:33:14;;;;;;;3.80;2.75;;;;;;;18.06;61.49;96495.03;10411736;28;20075;-31
2023/05/13 00:38:15;;;;;;;3.55;1.80;;;;;;;18.04;61.28;96491.66;10392947;28;20025;-31
2023/05/13 00:43:15;;;;;;;3.07;2.30;;;;;;;18.03;61.31;96489.97;10410852;28;20509;-31
2023/05/13 00:48:16;;;;;;;3.88;3.00;;;;;;;18.07;64.24;96491.66;10393358;28;20284;-30
2023/05/13 00:53:17;;;;;;;3.25;2.90;;;;;;;18.09;63.83;96487.44;10409126;28;20382;-30
2023/05/13 00:58:17;;;;;;;3.70;3.25;;;;;;;18.08;64.08;96481.50;10406134;28;20087;-30
2023/05/13 01:03:26;;;;;;;5.90;2.83;;;;;;;18.05;61.75;96481.53;10402819;28;20503;-31
2023/05/13 01:08:49;;;;;;;4.65;2.60;;;;;;;18.04;61.26;96489.97;10402624;28;20033;-31
2023/05/13 01:13:56;;;;;;;4.10;2.42;;;;;;;18.03;61.32;96484.91;10409452;28;20040;-30
2023/05/13 01:19:01;;;;;;;2.20;1.98;;;;;;;18.01;60.93;96489.97;10397345;28;20030;-30
2023/05/13 01:24:01;;;;;;;2.20;1.88;;;;;;;18.01;61.25;96479.00;10401460;28;20034;-31
2023/05/13 01:29:02;;;;;;;4.13;2.15;;;;;;;18.00;61.12;96482.38;10404282;28;20038;-30
2023/05/13 01:34:04;;;;;;;3.60;2.40;;;;;;;17.99;60.92;96484.06;10382374;28;20037;-30
2023/05/13 01:39:07;;;;;;;3.60;2.55;;;;;;;17.99;60.89;96481.53;10383810;28;20049;-30
2023/05/13 01:44:07;;;;;;;2.13;1.92;;;;;;;18.00;60.80;96477.31;10406927;28;20036;-30
2023/05/13 01:49:09;;;;;;;5.40;3.03;;;;;;;18.02;64.16;96478.16;10383991;28;20033;-30
2023/05/13 01:54:09;;;;;;;5.75;3.42;;;;;;;18.06;63.90;96472.22;10382848;28;20087;-31
2023/05/13 01:59:13;;;;;;;2.72;2.45;;;;;;;18.05;64.03;96483.19;10371111;28;20052;-30
2023/05/13 02:04:13;;;;;;;2.37;2.17;;;;;;;18.04;61.52;96484.06;10374598;28;20029;-31
2023/05/13 02:09:15;;;;;;;1.90;1.67;;;;;;;18.02;61.10;96495.88;10367377;28;20040;-30
2023/05/13 02:14:16;;;;;;;2.10;1.90;;;;;;;17.99;61.04;96486.59;10398871;28;20040;-30
2023/05/13 02:19:16;;;;;;;2.70;2.00;;;;;;;17.99;60.86;96496.72;10406131;28;20038;-30
2023/05/13 02:24:16;;;;;;;4.10;3.03;;;;;;;17.98;61.03;96506.88;10382583;28;20033;-31
2023/05/13 02:29:17;;;;;;;3.00;2.07;;;;;;;17.98;60.88;96509.41;10399417;28;20299;-30
2023/05/13 02:34:17;;;;;;;2.50;2.13;;;;;;;17.96;60.66;96501.81;10407031;28;20046;-29
2023/05/13 02:39:17;;;;;;;2.50;1.90;;;;;;;17.97;60.96;96505.16;10390741;28;20029;-31
2023/05/13 02:44:18;;;;;;;2.92;1.88;;;;;;;17.95;60.75;96509.41;10407133;28;20061;-30
2023/05/13 02:49:19;;;;;;;2.80;2.53;;;;;;;17.99;64.46;96500.97;10389173;28;20425;-30
2023/05/13 02:54:20;;;;;;;5.15;2.80;;;;;;;18.00;63.52;96503.47;10389708;28;20041;-31
2023/05/13 02:59:20;;;;;;;3.67;2.95;;;;;;;18.02;63.81;96490.81;10389356;28;20029;-30
2023/05/13 03:04:20;;;;;;;2.73;1.90;;;;;;;17.99;61.07;96489.13;10393043;28;20086;-30
2023/05/13 03:09:21;;;;;;;2.60;2.00;;;;;;;17.98;60.97;96486.63;10399281;28;20284;-31
2023/05/13 03:14:22;;;;;;;2.15;1.95;;;;;;;17.97;60.91;96489.97;10390051;28;20076;-30
2023/05/13 03:19:22;;;;;;;2.28;1.95;;;;;;;17.96;60.73;96491.69;10396209;28;20029;-30
2023/05/13 03:24:23;;;;;;;2.40;2.10;;;;;;;17.94;60.44;96492.53;10403621;28;20320;-30
2023/05/13 03:29:24;;;;;;;1.98;1.70;;;;;;;17.94;60.88;96493.38;10391050;28;20068;-30
2023/05/13 03:34:27;;;;;;;2.17;1.55;;;;;;;17.94;60.68;96492.53;10387512;28;20037;-30
2023/05/13 03:39:28;;;;;;;2.45;1.80;;;;;;;17.92;60.54;96484.09;10395040;28;20037;-30
2023/05/13 03:44:29;;;;;;;2.33;2.10;;;;;;;17.93;60.48;96495.91;10395000;28;20026;-31
2023/05/13 03:49:29;;;;;;;5.00;2.70;;;;;;;17.96;62.88;96495.88;10413154;28;20128;-30
2023/05/13 03:54:31;;;;;;;3.20;2.88;;;;;;;17.97;63.55;96506.03;10396479;28;20100;-30
2023/05/13 03:59:31;;;;;;;4.03;2.73;;;;;;;17.98;63.43;96509.41;10413585;28;20564;-31
2023/05/13 04:04:32;;;;;;;2.15;1.92;;;;;;;17.98;61.77;96511.94;10412819;28;20349;-30
2023/05/13 04:09:32;;;;;;;2.07;1.70;;;;;;;17.95;60.85;96512.78;10413736;28;20037;-30
2023/05/13 04:14:33;;;;;;;2.10;1.90;;;;;;;17.94;60.68;96518.72;10405120;28;20054;-30
2023/05/13 04:19:34;;;;;;;2.10;1.50;;;;;;;17.92;60.19;96524.63;10393260;28;20041;-31
2023/05/13 04:24:34;;;;;;;2.00;1.90;;;;;;;17.91;60.66;96526.28;10395197;28;20063;-30
2023/05/13 04:29:34;;;;;;;1.70;1.60;;;;;;;17.91;60.58;96525.47;10393775;28;20454;-32
2023/05/13 04:34:35;;;;;;;1.85;1.70;;;;;;;17.91;60.41;96541.47;10394142;28;20063;-31
2023/05/13 04:39:36;;;;;;;1.85;1.45;;;;;;;17.91;60.46;96548.25;10412067;28;20065;-30
2023/05/13 04:44:37;;;;;;;1.83;1.67;;;;;;;17.90;60.43;96538.97;10388831;28;20136;-31
2023/05/13 04:49:37;;;;;;;2.22;1.70;;;;;;;17.90;60.45;96546.56;10396655;28;20032;-30
2023/05/13 04:54:39;;;;;;;3.47;3.03;;;;;;;17.94;63.17;96545.72;10387518;28;20087;-31
2023/05/13 04:59:40;;;;;;;2.60;2.40;;;;;;;17.96;63.38;96546.53;10392152;28;20083;-30
2023/05/13 05:04:42;;;;;;;2.10;1.90;;;;;;;17.94;61.67;96543.19;10383146;28;20108;-31
2023/05/13 05:09:47;;;;;;;1.85;1.75;;;;;;;17.94;60.88;96548.25;10387489;28;20079;-30
2023/05/13 05:14:47;;;;;;;10.95;1.80;;;;;;;17.86;61.16;96552.47;10384138;28;20646;-30
2023/05/13 05:19:49;;;;;;;1.88;1.60;;;;;;;17.89;60.81;96550.78;10391285;28;20091;-31
2023/05/13 05:24:50;;;;;;;2.70;2.00;;;;;;;17.87;60.71;96547.41;10392006;28;20043;-31
2023/05/13 05:29:50;;;;;;;2.00;1.80;;;;;;;17.89;60.54;96554.97;10391523;28;20108;-32
2023/05/13 05:34:51;;;;;;;1.23;1.10;;;;;;;17.87;60.23;96554.16;10379131;28;20808;-30
2023/05/13 05:39:51;;;;;;;2.58;1.83;;;;;;;17.87;59.99;96561.75;10389404;28;20090;-31
2023/05/13 05:44:54;;;;;;;2.67;2.43;;;;;;;17.81;59.84;96544.88;10386982;28;20037;-34
2023/05/13 05:49:55;;;;;;;2.15;1.45;;;;;;;17.86;59.80;96555.00;10377595;28;20752;-31
2023/05/13 05:54:55;;;;;;;18.85;9.25;;;;;;;17.95;63.51;96565.13;10398696;28;20036;-30
2023/05/13 05:59:56;;;;;;;16.98;9.60;;;;;;;17.97;63.58;96558.34;10383208;28;20033;-30
2023/05/13 06:04:56;;;;;;;13.02;8.05;;;;;;;17.98;63.39;96565.13;10366821;28;20514;-31
2023/05/13 06:09:57;;;;;;;5.90;3.80;;;;;;;17.96;59.99;96569.34;10378269;28;20037;-30
2023/05/13 06:14:58;;;;;;;5.13;3.60;;;;;;;17.89;60.79;96575.25;10380678;28;20497;-30
2023/05/13 06:19:59;;;;;;;6.80;3.90;;;;;;;17.92;60.27;96585.41;10389873;28;20030;-30
2023/05/13 06:24:59;;;;;;;5.70;3.97;;;;;;;17.89;60.02;96578.63;10396419;28;20025;-30
2023/05/13 06:30:00;;;;;;;8.87;5.00;;;;;;;17.80;60.91;96585.38;10395169;28;20190;-30
2023/05/13 06:35:00;;;;;;;18.52;8.15;;;;;;;17.83;61.55;96588.75;10396135;28;20490;-30
2023/05/13 06:40:01;;;;;;;18.00;10.80;;;;;;;17.88;61.03;96579.47;10383038;28;20033;-31
2023/05/13 06:45:03;;;;;;;18.65;12.68;;;;;;;17.87;61.63;96572.75;10377864;28;20037;-30
2023/05/13 06:50:04;;;;;;;21.40;12.23;;;;;;;17.89;61.31;96578.63;10381596;28;20025;-30
2023/05/13 06:55:05;;;;;;;15.50;9.95;;;;;;;17.92;62.40;96575.28;10399200;28;20022;-30
2023/05/13 07:00:06;;;;;;;23.88;10.77;;;;;;;17.88;63.60;96583.69;10403229;28;20420;-30
2023/05/13 07:05:08;;;;;;;23.17;11.63;;;;;;;17.97;63.70;96578.63;10403946;28;20039;-30
2023/05/13 07:10:08;;;;;;;11.18;6.65;;;;;;;17.94;62.60;96581.16;10404407;28;20040;-30
2023/05/13 07:15:09;;;;;;;11.85;5.70;;;;;;;17.89;62.22;96585.38;10400180;28;20048;-30
2023/05/13 07:20:10;;;;;;;9.32;5.18;;;;;;;17.82;62.51;96594.66;10406174;28;20515;-30
2023/05/13 07:25:11;;;;;;;10.65;5.57;;;;;;;17.75;62.19;96600.56;10396552;28;20039;-30
2023/05/13 07:30:12;;;;;;;10.82;4.85;;;;;;;17.79;61.65;96598.88;10407360;28;20147;-30
2023/05/13 07:35:14;;;;;;;14.70;6.25;;;;;;;17.85;61.87;96597.22;10388810;28;20038;-30
2023/05/13 07:40:16;;;;;;;8.95;5.45;;;;;;;17.75;61.22;96597.22;10409944;28;20080;-30
2023/05/13 07:45:16;;;;;;;7.32;4.63;;;;;;;17.81;61.16;96602.25;10385836;28;20033;-31
2023/05/13 07:50:17;;;;;;;8.23;4.47;;;;;;;17.87;60.98;96600.59;10411858;23;20051;-30
2023/05/13 07:55:17;;;;;;;11.23;5.40;;;;;;;17.83;62.10;96601.41;10399098;28;20088;-30
2023/05/13 08:00:18;;;;;;;15.63;6.85;;;;;;;17.83;61.55;96601.41;10408890;28;20389;-30
2023/05/13 08:05:18;;;;;;;14.73;9.45;;;;;;;17.85;62.46;96588.75;10404479;28;20123;-30
2023/05/13 08:10:19;;;;;;;12.02;6.93;;;;;;;17.84;62.10;96598.03;10410895;28;20029;-30
2023/05/13 08:15:19;;;;;;;14.37;7.90;;;;;;;17.89;62.13;96603.97;10412401;28;20040;-30
2023/05/13 08:20:21;;;;;;;15.10;7.77;;;;;;;17.90;62.01;96594.69;10412133;28;20040;-33
2023/05/13 08:25:24;;;;;;;12.00;5.60;;;;;;;17.90;61.04;96602.28;10426364;23;20524;-25
2023/05/13 08:30:24;;;;;;;12.23;4.73;;;;;;;17.90;60.50;96599.75;10411861;28;20048;-26
2023/05/13 08:35:25;;;;;;;9.65;4.68;;;;;;;17.88;60.34;96602.28;10369007;28;20038;-25
2023/05/13 08:40:25;;;;;;;6.53;4.73;;;;;;;17.90;60.20;96602.28;10387677;28;20076;-25
2023/05/13 08:45:29;;;;;;;5.77;4.30;;;;;;;17.89;60.06;96600.56;10387747;28;20493;-26
2023/05/13 08:50:30;;;;;;;6.68;4.57;;;;;;;17.89;59.96;96603.09;10369756;28;20462;-26
2023/05/13 08:55:31;;;;;;;8.18;4.13;;;;;;;17.87;59.84;96610.72;10372353;28;20487;-25
2023/05/13 09:00:33;;;;;;;10.63;7.25;;;;;;;17.91;62.54;96603.97;10391613;28;20045;-25
2023/05/13 09:05:35;;;;;;;14.10;8.63;;;;;;;17.92;62.99;96616.63;10391663;28;20466;-26
2023/05/13 09:10:36;;;;;;;10.18;6.63;;;;;;;17.93;63.03;96612.41;10368483;28;20065;-26
2023/05/13 09:15:40;;;;;;;6.95;4.75;;;;;;;17.93;60.46;96612.41;10363961;28;20449;-26
2023/05/13 09:20:40;;;;;;;5.70;4.18;;;;;;;17.90;60.17;96617.50;10368529;28;20030;-26
2023/05/13 09:25:44;;;;;;;10.35;4.72;;;;;;;17.90;60.18;96609.88;10378018;28;20478;-25
2023/05/13 09:30:53;;;;;;;5.80;4.40;;;;;;;17.88;59.91;96612.41;10377185;28;20057;-26
2023/05/13 09:35:54;;;;;;;7.85;5.05;;;;;;;17.87;59.96;96612.41;10367657;28;20557;-26
2023/05/13 09:40:56;;;;;;;6.13;3.97;;;;;;;17.87;59.86;96613.25;10369372;28;20061;-26
2023/05/13 09:46:00;;;;;;;7.10;4.38;;;;;;;17.87;59.64;96614.94;10381349;28;20296;-26
2023/05/13 09:51:01;;;;;;;6.45;4.30;;;;;;;17.87;59.89;96620.00;10377972;28;20053;-25
2023/05/13 09:56:01;;;;;;;7.53;4.83;;;;;;;17.86;59.60;96615.78;10376455;28;20186;-26
2023/05/13 10:01:02;;;;;;;6.23;4.80;;;;;;;17.89;60.03;96623.38;10381943;28;20663;-26
2023/05/13 10:06:04;;;;;;;9.57;6.38;;;;;;;17.91;63.10;96620.00;10374761;28;20099;-25
2023/05/13 10:11:06;;;;;;;9.77;7.07;;;;;;;17.91;63.29;96614.94;10394644;28;20061;-26
2023/05/13 10:16:10;;;;;;;8.93;5.85;;;;;;;17.94;63.11;96616.63;10375036;28;20477;-26
2023/05/13 10:21:11;;;;;;;7.68;4.43;;;;;;;17.91;60.17;96625.06;10366501;28;20042;-25
2023/05/13 10:26:13;;;;;;;5.80;4.32;;;;;;;17.88;59.99;96619.16;10375504;28;20026;-25
2023/05/13 10:31:13;;;;;;;7.40;4.57;;;;;;;17.88;59.86;96621.69;10379289;28;20036;-25
2023/05/13 10:36:25;;;;;;;5.90;4.17;;;;;;;17.87;59.85;96620.00;10374019;28;20036;-26
2023/05/13 10:42:03;;;;;;;5.53;4.10;;;;;;;17.86;59.82;96625.91;10367023;28;20044;-26
2023/05/13 10:47:03;;;;;;;11.32;4.30;;;;;;;17.85;59.75;96624.22;10389110;28;20037;-25
2023/05/13 10:52:08;;;;;;;5.00;3.67;;;;;;;17.83;59.55;96626.75;10376292;28;20409;-26
2023/05/13 10:57:09;;;;;;;5.80;4.15;;;;;;;17.80;59.53;96611.56;10366089;28;20665;-25
2023/05/13 11:02:22;;;;;;;5.32;3.67;;;;;;;17.84;59.70;96612.41;10383432;28;20030;-26
2023/05/13 11:07:23;;;;;;;9.80;5.85;;;;;;;17.88;62.93;96609.88;10374429;28;20477;-27
2023/05/13 11:12:23;;;;;;;8.77;5.80;;;;;;;17.91;63.26;96614.94;10374159;28;20034;-26
2023/05/13 11:17:23;;;;;;;8.10;6.13;;;;;;;17.93;63.38;96612.41;10373855;28;20087;-25
2023/05/13 11:22:24;;;;;;;5.53;3.93;;;;;;;17.90;60.66;96609.88;10374861;28;20030;-26
2023/05/13 11:27:24;;;;;;;7.40;4.22;;;;;;;17.88;59.88;96609.88;10373931;28;20030;-26
2023/05/13 11:32:51;;;;;;;5.78;4.25;;;;;;;17.86;59.84;96614.09;10373577;28;20050;-26
2023/05/13 11:37:51;;;;;;;6.05;3.78;;;;;;;17.85;59.90;96609.03;10376765;28;20433;-25
2023/05/13 11:42:53;;;;;;;4.95;3.70;;;;;;;17.84;59.83;96608.16;10372622;28;20037;-25
2023/05/13 11:47:55;;;;;;;5.57;3.70;;;;;;;17.83;59.58;96596.34;10395875;28;20022;-26
2023/05/13 11:52:58;;;;;;;5.78;3.30;;;;;;;17.84;59.74;96604.81;10377230;28;20032;-26
2023/05/13 11:57:58;;;;;;;5.85;3.47;;;;;;;17.84;59.51;96597.22;10375594;28;20061;-25
2023/05/13 12:03:01;;;;;;;4.70;3.67;;;;;;;17.82;59.55;96598.91;10379302;28;20489;-26
2023/05/13 12:08:02;;;;;;;8.68;5.25;;;;;;;17.86;63.15;96600.59;10380531;28;20041;-25
2023/05/13 12:13:02;;;;;;;7.70;5.10;;;;;;;17.88;63.46;96599.75;10371509;28;20416;-25
2023/05/13 12:18:03;;;;;;;7.30;5.50;;;;;;;17.91;63.30;96607.34;10383973;28;20033;-26
2023/05/13 12:23:05;;;;;;;14.35;6.35;;;;;;;17.88;62.12;96603.94;10391143;28;20041;-26
2023/05/13 12:28:12;;;;;;;5.65;3.58;;;;;;;17.86;59.98;96608.19;10384399;28;20037;-26
2023/05/13 12:33:19;;;;;;;5.00;3.28;;;;;;;17.85;59.82;96604.81;10385314;28;20121;-25
2023/05/13 12:38:22;;;;;;;4.88;3.92;;;;;;;17.81;59.65;96598.06;10380682;28;20045;-25
2023/05/13 12:43:23;;;;;;;5.32;4.00;;;;;;;17.82;59.77;96604.81;10378372;28;20037;-25
2023/05/13 12:48:24;;;;;;;3.70;2.88;;;;;;;17.81;59.57;96603.13;10376516;28;20056;-25
2023/05/13 12:53:25;;;;;;;5.13;3.65;;;;;;;17.81;59.58;96603.13;10378746;28;20503;-26
2023/05/13 12:58:25;;;;;;;4.40;3.20;;;;;;;17.78;59.44;96609.84;10370225;28;20073;-25
2023/05/13 13:03:26;;;;;;;4.45;2.83;;;;;;;17.79;59.55;96607.34;10369265;28;20050;-26
2023/05/13 13:08:27;;;;;;;3.93;3.30;;;;;;;17.78;59.54;96612.38;10378159;28;20077;-25
2023/05/13 13:13:27;;;;;;;7.20;4.72;;;;;;;17.86;63.23;96621.69;10377241;28;20048;-25
2023/05/13 13:18:28;;;;;;;7.33;5.30;;;;;;;17.90;63.49;96617.50;10384003;28;20045;-25
2023/05/13 13:23:28;;;;;;;6.47;4.67;;;;;;;17.92;63.31;96623.38;10394152;28;20609;-25
2023/05/13 13:28:30;;;;;;;4.27;3.17;;;;;;;17.87;60.66;96617.47;10368770;28;20300;-26
2023/05/13 13:33:30;;;;;;;4.00;3.05;;;;;;;17.83;59.23;96609.00;10368117;28;20304;-26
2023/05/13 13:38:31;;;;;;;3.70;3.00;;;;;;;17.83;59.76;96608.19;10393327;28;20045;-26
2023/05/13 13:43:31;;;;;;;5.17;3.53;;;;;;;17.79;59.49;96599.75;10376064;28;20061;-26
2023/05/13 13:48:31;;;;;;;4.47;3.20;;;;;;;17.81;59.47;96599.72;10367714;28;20038;-26
2023/05/13 13:53:32;;;;;;;3.80;3.03;;;;;;;17.81;59.43;96597.19;10384656;28;20034;-26
2023/05/13 13:58:32;;;;;;;3.77;2.90;;;;;;;17.79;59.35;96592.16;10378792;28;20056;-26
2023/05/13 14:03:32;;;;;;;5.00;3.28;;;;;;;17.79;59.34;96591.28;10382153;28;20115;-25
2023/05/13 14:08:33;;;;;;;4.40;3.27;;;;;;;17.79;59.44;96583.69;10383975;28;20091;-26
2023/05/13 14:13:33;;;;;;;3.20;2.50;;;;;;;17.78;59.30;96574.41;10378991;28;20061;-26
2023/05/13 14:18:33;;;;;;;6.07;4.57;;;;;;;17.85;63.54;96579.50;10389496;28;20346;-26
2023/05/13 14:23:34;;;;;;;6.13;4.70;;;;;;;17.88;63.49;96569.34;10375375;28;20038;-26
2023/05/13 14:28:34;;;;;;;6.60;4.10;;;;;;;17.91;63.50;96571.06;10375526;28;20080;-26
2023/05/13 14:33:35;;;;;;;4.10;3.20;;;;;;;17.85;60.39;96564.31;10382505;28;20052;-26
2023/05/13 14:38:37;;;;;;;3.95;3.08;;;;;;;17.82;59.79;96556.69;10384231;28;20029;-25
2023/05/13 14:43:37;;;;;;;3.58;2.67;;;;;;;17.81;59.21;96561.75;10382092;28;20069;-26
2023/05/13 14:48:38;;;;;;;3.93;2.97;;;;;;;17.80;59.67;96560.06;10374730;28;20041;-25
2023/05/13 14:53:38;;;;;;;3.47;2.43;;;;;;;17.77;59.39;96562.59;10392002;28;20041;-26
2023/05/13 14:58:39;;;;;;;4.22;3.10;;;;;;;17.79;59.42;96556.69;10382592;28;20818;-26
2023/05/13 15:03:39;;;;;;;4.28;3.17;;;;;;;17.78;59.37;96554.16;10373633;28;20038;-26
2023/05/13 15:08:40;;;;;;;3.83;2.90;;;;;;;17.78;59.38;96551.63;10367909;28;20052;-26
2023/05/13 15:13:40;;;;;;;4.28;2.85;;;;;;;17.77;59.93;96539.81;10381593;28;20300;-26
2023/05/13 15:18:40;;;;;;;4.70;3.20;;;;;;;17.79;60.23;96543.19;10381517;28;20044;-25
2023/05/13 15:23:41;;;;;;;4.80;4.13;;;;;;;17.86;63.43;96552.47;10382698;28;20030;-25
2023/05/13 15:28:41;;;;;;;4.37;3.27;;;;;;;17.88;63.32;96538.09;10380901;28;20141;-26
2023/05/13 15:33:41;;;;;;;5.13;4.43;;;;;;;17.88;62.88;96533.03;10372660;28;20096;-26
2023/05/13 15:38:42;;;;;;;3.50;2.90;;;;;;;17.83;60.56;96535.56;10381709;28;20042;-25
2023/05/13 15:43:43;;;;;;;3.30;2.60;;;;;;;17.81;59.87;96528.81;10381125;28;20483;-26
2023/05/13 15:48:43;;;;;;;3.63;2.55;;;;;;;17.79;59.83;96523.78;10380439;28;20037;-25
2023/05/13 15:53:43;;;;;;;3.37;2.80;;;;;;;17.80;60.02;96529.66;10372879;28;20037;-25
2023/05/13 15:58:44;;;;;;;4.97;2.80;;;;;;;17.79;59.70;96520.38;10372473;28;20038;-26
2023/05/13 16:03:44;;;;;;;4.20;2.90;;;;;;;17.77;59.65;96529.69;10379590;28;20044;-26
2023/05/13 16:08:44;;;;;;;3.37;2.63;;;;;;;17.75;59.59;96527.13;10390068;28;20043;-26
2023/05/13 16:13:45;;;;;;;3.67;2.93;;;;;;;17.74;59.37;96528.00;10389017;28;20125;-26
2023/05/13 16:18:45;;;;;;;2.90;2.30;;;;;;;17.73;59.30;96531.38;10380191;28;20079;-26
2023/05/13 16:23:45;;;;;;;4.17;3.30;;;;;;;17.78;62.23;96537.28;10394674;28;20037;-26
2023/05/13 16:28:46;;;;;;;4.00;3.40;;;;;;;17.84;64.07;96538.97;10379079;28;20037;-25
2023/05/13 16:33:46;;;;;;;6.30;4.43;;;;;;;17.87;64.33;96546.56;10378492;28;20095;-25
2023/05/13 16:38:46;;;;;;;4.30;3.50;;;;;;;17.86;63.28;96550.78;10379522;28;20478;-26
2023/05/13 16:43:47;;;;;;;3.40;2.73;;;;;;;17.80;60.66;96549.94;10379858;28;20520;-26
2023/05/13 16:48:47;;;;;;;3.23;2.33;;;;;;;17.79;59.74;96553.31;10378242;28;20301;-25
2023/05/13 16:53:47;;;;;;;2.70;2.23;;;;;;;17.76;59.69;96559.22;10378509;28;20045;-26
2023/05/13 16:58:48;;;;;;;3.37;2.77;;;;;;;17.75;59.63;96561.75;10389708;28;20041;-26
2023/05/13 17:03:48;;;;;;;3.10;2.27;;;;;;;17.74;59.42;96572.75;10386552;28;20046;-26
2023/05/13 17:08:48;;;;;;;3.03;2.50;;;;;;;17.74;59.41;96580.34;10386437;28;20041;-25
2023/05/13 17:13:49;;;;;;;2.30;2.10;;;;;;;17.73;59.15;96587.06;10375878;28;20037;-26
2023/05/13 17:18:49;;;;;;;2.33;2.07;;;;;;;17.71;59.16;96585.38;10376938;28;20096;-26
2023/05/13 17:23:50;;;;;;;3.00;2.28;;;;;;;17.72;59.18;96594.66;10369629;28;20034;-26
2023/05/13 17:28:50;;;;;;;6.10;4.30;;;;;;;17.79;63.35;96591.28;10368567;28;20125;-26
2023/05/13 17:33:51;;;;;;;4.40;3.78;;;;;;;17.83;64.32;96586.22;10388741;28;20307;-26
2023/05/13 17:38:52;;;;;;;4.28;3.75;;;;;;;17.86;64.31;96591.31;10370647;28;20069;-26
2023/05/13 17:43:52;;;;;;;5.73;3.40;;;;;;;17.84;63.22;96592.16;10382789;28;20456;-26
2023/05/13 17:48:52;;;;;;;3.30;2.60;;;;;;;17.77;60.23;96592.97;10384315;28;20041;-25
2023/05/13 17:53:52;;;;;;;3.87;2.83;;;;;;;17.77;59.92;96598.03;10384533;28;20461;-25
2023/05/13 17:58:53;;;;;;;3.13;2.60;;;;;;;17.75;59.78;96602.28;10376274;28;20134;-25
2023/05/13 18:03:54;;;;;;;2.57;2.20;;;;;;;17.74;59.45;96603.13;10367288;28;20534;-26
2023/05/13 18:08:54;;;;;;;2.70;2.30;;;;;;;17.73;59.39;96603.97;10376214;28;20061;-25
2023/05/13 18:13:55;;;;;;;2.50;2.00;;;;;;;17.72;59.34;96609.84;10386434;28;20033;-26
2023/05/13 18:18:55;;;;;;;3.07;2.20;;;;;;;17.72;59.29;96603.09;10374996;28;20068;-26
2023/05/13 18:23:55;;;;;;;2.47;1.93;;;;;;;17.72;59.33;96604.78;10369225;28;20307;-25
2023/05/13 18:28:56;;;;;;;2.30;1.93;;;;;;;17.70;59.20;96599.75;10391470;28;20489;-25
2023/05/13 18:33:58;;;;;;;3.97;3.33;;;;;;;17.78;63.79;96607.31;10382565;28;20295;-26
2023/05/13 18:38:59;;;;;;;4.70;3.30;;;;;;;17.82;65.08;96614.94;10367735;28;20041;-26
2023/05/13 18:43:59;;;;;;;4.03;3.00;;;;;;;17.86;64.32;96620.84;10377608;28;20413;-26
2023/05/13 18:48:59;;;;;;;4.13;3.20;;;;;;;17.82;63.50;96627.59;10374997;28;20553;-25
2023/05/13 18:54:00;;;;;;;2.70;2.25;;;;;;;17.77;60.85;96626.75;10399730;28;20192;-26
2023/05/13 18:59:00;;;;;;;2.90;2.27;;;;;;;17.74;59.95;96621.66;10395356;28;20508;-25
2023/05/13 19:04:00;;;;;;;1.73;1.63;;;;;;;17.73;59.76;96631.81;10390488;28;20405;-25
2023/05/13 19:09:01;;;;;;;2.53;2.07;;;;;;;17.72;59.48;96635.16;10383119;28;20112;-25
2023/05/13 19:14:01;;;;;;;2.00;1.70;;;;;;;17.72;59.37;96632.63;10384129;28;20061;-25
2023/05/13 19:19:01;;;;;;;2.47;1.93;;;;;;;17.70;59.64;96639.38;10392130;28;20041;-25
2023/05/13 19:24:02;;;;;;;2.03;1.83;;;;;;;17.70;59.40;96641.91;10390439;28;20284;-26
2023/05/13 19:29:02;;;;;;;2.28;1.75;;;;;;;17.70;59.36;96646.97;10389935;28;20447;-26
2023/05/13 19:34:03;;;;;;;3.37;2.07;;;;;;;17.70;59.05;96655.44;10388702;28;20135;-26
2023/05/13 19:39:03;;;;;;;4.03;3.30;;;;;;;17.76;64.06;96657.97;10381955;28;20122;-26
2023/05/13 19:44:03;;;;;;;3.17;2.57;;;;;;;17.82;64.65;96667.28;10372589;28;20038;-25
2023/05/13 19:49:04;;;;;;;3.67;3.00;;;;;;;17.82;64.58;96669.81;10380896;28;20033;-25
2023/05/13 19:54:08;;;;;;;3.17;2.63;;;;;;;17.81;63.35;96678.22;10380193;28;20125;-25
2023/05/13 19:59:08;;;;;;;2.88;2.38;;;;;;;17.76;61.57;96669.78;10388502;28;20033;-26
2023/05/13 20:04:09;;;;;;;2.13;1.83;;;;;;;17.72;60.04;96676.53;10384063;28;20108;-26
2023/05/13 20:09:10;;;;;;;1.60;1.50;;;;;;;17.71;59.70;96676.53;10380786;28;20061;-26
2023/05/13 20:14:11;;;;;;;2.58;1.98;;;;;;;17.70;59.74;96680.75;10387887;28;20397;-26
2023/05/13 20:19:12;;;;;;;2.22;1.67;;;;;;;17.70;59.58;96679.91;10371330;28;20037;-26
2023/05/13 20:24:12;;;;;;;2.00;1.80;;;;;;;17.69;59.57;96684.13;10383247;28;20032;-26
2023/05/13 20:29:12;;;;;;;2.60;2.20;;;;;;;17.69;59.36;96679.06;10384623;28;20409;-26
2023/05/13 20:34:14;;;;;;;1.93;1.73;;;;;;;17.69;59.37;96683.28;10385745;28;20029;-26
2023/05/13 20:39:14;;;;;;;2.35;1.75;;;;;;;17.67;59.35;96682.44;10395960;28;20634;-25
2023/05/13 20:44:15;;;;;;;3.37;2.83;;;;;;;17.73;63.71;96685.00;10397922;28;20022;-26
2023/05/13 20:49:16;;;;;;;3.00;2.70;;;;;;;17.78;64.83;96685.81;10370039;28;20067;-26
2023/05/13 20:54:17;;;;;;;3.25;2.80;;;;;;;17.78;64.85;96679.09;10378897;28;20387;-26
2023/05/13 20:59:17;;;;;;;3.10;2.43;;;;;;;17.77;62.70;96681.59;10369823;28;20286;-25
2023/05/13 21:04:17;;;;;;;2.57;2.07;;;;;;;17.73;60.83;96679.94;10397513;28;20034;-25
2023/05/13 21:09:18;;;;;;;3.23;2.23;;;;;;;17.70;60.02;96675.69;10379754;28;20044;-25
2023/05/13 21:14:18;;;;;;;2.00;1.73;;;;;;;17.70;59.89;96669.78;10382258;28;20372;-25
2023/05/13 21:19:23;;;;;;;2.30;1.65;;;;;;;17.70;59.57;96659.66;10382238;28;20030;-26
2023/05/13 21:24:23;;;;;;;2.65;1.80;;;;;;;17.67;59.36;96660.47;10374689;28;20033;-25
2023/05/13 21:29:24;;;;;;;2.07;1.80;;;;;;;17.67;59.38;96657.13;10390642;28;20034;-25
2023/05/13 21:34:24;;;;;;;2.03;1.83;;;;;;;17.66;59.27;96658.78;10381528;28;20300;-25
2023/05/13 21:39:24;;;;;;;2.47;1.40;;;;;;;17.68;59.24;96656.28;10386256;28;20034;-25
2023/05/13 21:44:26;;;;;;;1.87;1.47;;;;;;;17.65;59.07;96648.69;10400285;28;20033;-25
2023/05/13 21:49:26;;;;;;;2.50;2.15;;;;;;;17.74;64.42;96658.81;10371995;28;20125;-25
2023/05/13 21:54:26;;;;;;;3.47;2.90;;;;;;;17.77;64.31;96648.69;10380501;28;20026;-26
2023/05/13 21:59:27;;;;;;;3.00;2.50;;;;;;;17.80;63.99;96646.16;10381084;28;20030;-26
2023/05/13 22:04:27;;;;;;;3.47;2.43;;;;;;;17.76;63.21;96635.16;10385429;28;20104;-25
2023/05/13 22:09:28;;;;;;;2.20;1.80;;;;;;;17.70;60.95;96632.66;10389496;28;20048;-25
2023/05/13 22:14:28;;;;;;;2.33;2.03;;;;;;;17.69;60.07;96625.91;10383524;28;20034;-25
2023/05/13 22:19:29;;;;;;;1.90;1.53;;;;;;;17.69;59.69;96625.03;10386642;28;20041;-25
2023/05/13 22:24:29;;;;;;;1.75;1.50;;;;;;;17.67;59.62;96622.50;10375625;28;20557;-25
2023/05/13 22:29:30;;;;;;;1.55;1.38;;;;;;;17.66;59.39;96622.53;10375119;28;20493;-25
2023/05/13 22:34:31;;;;;;;1.75;1.60;;;;;;;17.66;59.29;96638.53;10366234;28;20030;-25
2023/05/13 22:39:31;;;;;;;2.03;1.58;;;;;;;17.65;59.33;96636.03;10367849;28;20053;-26
2023/05/13 22:44:32;;;;;;;2.30;2.10;;;;;;;17.64;59.10;96619.13;10382786;28;20397;-26
2023/05/13 22:49:32;;;;;;;2.07;1.83;;;;;;;17.65;59.25;96625.91;10379369;28;20284;-25
2023/05/13 22:54:32;;;;;;;2.77;2.20;;;;;;;17.68;63.88;96628.41;10375241;28;20088;-25
2023/05/13 22:59:33;;;;;;;3.97;2.77;;;;;;;17.74;63.88;96636.03;10385834;28;20049;-25
2023/05/13 23:04:34;;;;;;;2.85;2.40;;;;;;;17.74;63.85;96633.50;10381939;28;20041;-26
2023/05/13 23:09:35;;;;;;;2.50;2.10;;;;;;;17.73;63.12;96639.41;10380082;28;20029;-26
2023/05/13 23:14:35;;;;;;;2.70;2.30;;;;;;;17.70;60.92;96634.31;10368619;28;20042;-25
2023/05/13 23:19:36;;;;;;;2.07;1.60;;;;;;;17.67;60.21;96634.34;10368566;28;20095;-25